Terminal Aerodrome Forecast
Issued by NWS

Home | Current Version | Previous Version | Text Only | Print | Product List | Glossary On
Versions: 1 2 3 4 5 6 7 8 9 10 11 12
000
FTUS45 KSLC 041137
TAFENV
TAF
KENV 041137Z 0412/0512 11005KT P6SM SCT100 BKN200
     FM050100 30008KT P6SM SCT050 BKN100
      AMD LTD TO CLD VIS AND WIND=

USA.gov is the U.S. government's official web portal to all federal, state and local government web resources and services.